Accueil
METAR-TAF:

METAR-TAF

Aéroports :

Le Mans, France

Aéroport Le Mans-Arnage

latitude: 47-56N, longitude: 000-12E, altitude: 59 m

Observation

Le bulletin a été fait il y a 26 minutes, à 12:00 UTC
Vent 11 kt de ouest, variant entre sud-ouest et nord-ouest
Température 20°C
Humidité 60%
Pression 1011 hPa
Visibilité 10 km ou plus
Quelques nuages à une hauteur de 3500 ft
Nuages fragmentés à une hauteur de 4300 ft
Ciel couvert à une hauteur de 15000 ft

METAR: LFRM 271200Z AUTO 26011KT 220V310 9999 FEW035 BKN043 OVC150 20/12 Q1011 NOSIG

Heure: 14:26 (12:26 UTC)

Prévision

Le bulletin a été fait il y a 1 heure et 26 minutes, à 11:00 UTC
Prévision valable du 27 à 12 UTC au 27 à 21 UTC
Vent 8 kt de ouest
Visibilité 10 km ou plus
Nuages épars à une hauteur de 2500 ft

TAF: LFRM 271100Z 2712/2721 26008KT 9999 SCT025

Observations et prévisions météorologiques de plus de 4000 aéroports (messages METAR et TAF).

Les stations disponibles sont représentées par des disques jaunes et rouges sur la carte.

Passer la souris dessus pour voir le nom de la station.

Cliquer dessus pour voir les observations et prévisions météorologiques.

Pour changer de carte: cliquez sur les boutons verts avec une croix noire pour zoomer, sur le bouton vert avec un tiret pour effectuer un zoom arrière, ou sur les flèches vertes pour les cartes adjacentes.


METAR-TAF: